createdAt,value
2018-09-05T00:00:23.250Z,16.30
2018-09-05T00:02:51.580Z,16.30
2018-09-05T00:05:19.920Z,16.30
2018-09-05T00:07:48.271Z,16.20
2018-09-05T00:10:16.588Z,15.80
2018-09-05T00:12:44.891Z,15.40
2018-09-05T00:15:13.213Z,15.40
2018-09-05T00:17:41.507Z,15.60
2018-09-05T00:20:09.824Z,15.70
2018-09-05T00:22:38.125Z,15.90
2018-09-05T00:25:06.928Z,16.00
2018-09-05T00:27:35.252Z,15.90
2018-09-05T00:30:03.592Z,15.80
2018-09-05T00:32:31.890Z,15.60
2018-09-05T00:35:00.236Z,15.80
2018-09-05T00:37:28.773Z,15.50
2018-09-05T00:39:57.100Z,15.10
2018-09-05T00:42:25.406Z,14.60
2018-09-05T00:44:53.735Z,14.20
2018-09-05T00:47:22.086Z,14.10
2018-09-05T00:49:50.420Z,14.20
2018-09-05T00:52:18.721Z,14.50
2018-09-05T00:54:47.041Z,14.80
2018-09-05T00:57:15.346Z,14.80
2018-09-05T00:59:43.675Z,14.90
2018-09-05T01:02:11.977Z,15.00
2018-09-05T01:04:40.304Z,15.30
2018-09-05T01:07:20.941Z,15.60
2018-09-05T01:09:49.296Z,15.80
2018-09-05T01:12:18.552Z,15.90
2018-09-05T01:14:47.011Z,16.00
2018-09-05T01:17:15.315Z,16.00
2018-09-05T01:19:43.639Z,15.90
2018-09-05T01:22:11.948Z,15.90
2018-09-05T01:24:40.263Z,15.80
2018-09-05T01:27:09.844Z,15.80
2018-09-05T01:29:39.152Z,15.40
2018-09-05T01:32:07.932Z,15.00
2018-09-05T01:34:36.452Z,14.90
2018-09-05T01:37:04.992Z,15.10
2018-09-05T01:39:33.327Z,15.30
2018-09-05T01:42:01.641Z,15.30
2018-09-05T01:44:29.967Z,15.00
2018-09-05T01:46:58.276Z,14.90
2018-09-05T01:49:26.640Z,14.70
2018-09-05T01:51:55.999Z,14.60
2018-09-05T01:54:24.340Z,14.50
2018-09-05T01:56:53.588Z,14.40
2018-09-05T01:59:22.020Z,14.40
2018-09-05T02:01:50.575Z,14.60
2018-09-05T02:04:19.907Z,14.80
2018-09-05T02:06:48.236Z,15.00
2018-09-05T02:09:16.572Z,15.00
2018-09-05T02:11:44.906Z,14.70
2018-09-05T02:14:13.480Z,14.60
2018-09-05T02:16:42.574Z,14.70
2018-09-05T02:19:10.920Z,14.90
2018-09-05T02:21:39.228Z,15.10
2018-09-05T02:24:07.535Z,15.30
2018-09-05T02:26:35.861Z,15.40
2018-09-05T02:29:04.217Z,15.20
2018-09-05T02:31:32.540Z,15.00
2018-09-05T02:34:00.869Z,14.90
2018-09-05T02:36:29.197Z,14.60
2018-09-05T02:38:57.527Z,14.20
2018-09-05T02:41:25.849Z,13.90
2018-09-05T02:43:59.522Z,13.50
2018-09-05T02:46:27.861Z,13.30
2018-09-05T02:48:56.200Z,13.20
2018-09-05T02:51:24.520Z,13.50
2018-09-05T02:53:52.819Z,14.00
2018-09-05T02:56:23.504Z,14.50
2018-09-05T02:58:52.091Z,14.90
2018-09-05T03:01:20.451Z,15.20
2018-09-05T03:03:48.751Z,15.40
2018-09-05T03:06:17.127Z,15.20
2018-09-05T03:08:45.456Z,14.90
2018-09-05T03:11:13.769Z,15.00
2018-09-05T03:13:42.075Z,15.20
2018-09-05T03:16:10.404Z,15.50
2018-09-05T03:18:39.011Z,15.40
2018-09-05T03:21:07.343Z,15.40
2018-09-05T03:23:35.664Z,15.40
2018-09-05T03:26:03.990Z,15.10
2018-09-05T03:28:32.291Z,14.90
2018-09-05T03:31:00.617Z,14.80
2018-09-05T03:33:28.916Z,14.40
2018-09-05T03:35:57.237Z,14.10
2018-09-05T03:38:25.590Z,14.10
2018-09-05T03:40:53.916Z,14.30
2018-09-05T03:43:22.221Z,14.50
2018-09-05T03:45:50.552Z,14.50
2018-09-05T03:48:18.867Z,14.10
2018-09-05T03:50:47.200Z,13.80
2018-09-05T03:53:15.516Z,13.50
2018-09-05T03:55:43.857Z,13.40
2018-09-05T03:58:12.163Z,13.10
2018-09-05T04:00:40.493Z,13.20
2018-09-05T04:03:08.804Z,13.10
2018-09-05T04:05:37.129Z,13.40
2018-09-05T04:08:05.451Z,13.60
2018-09-05T04:10:33.765Z,13.70
2018-09-05T04:13:02.072Z,13.60
2018-09-05T04:15:30.400Z,13.60
2018-09-05T04:17:58.709Z,13.80
2018-09-05T04:20:27.094Z,13.80
2018-09-05T04:22:55.501Z,13.70
2018-09-05T04:25:23.821Z,13.60
2018-09-05T04:27:52.136Z,13.40
2018-09-05T04:30:20.467Z,13.20
2018-09-05T04:32:48.789Z,12.90
2018-09-05T04:35:17.144Z,12.80
2018-09-05T04:37:45.448Z,12.90
2018-09-05T04:40:13.790Z,13.10
2018-09-05T04:42:42.124Z,13.00
2018-09-05T04:45:10.438Z,13.00
2018-09-05T04:47:38.780Z,13.10
2018-09-05T04:50:07.105Z,13.30
2018-09-05T04:52:35.480Z,13.40
2018-09-05T04:55:03.762Z,13.50
2018-09-05T04:57:32.092Z,13.90
2018-09-05T05:00:00.396Z,14.40
2018-09-05T05:02:28.731Z,14.80
2018-09-05T05:04:57.036Z,15.10
2018-09-05T05:07:25.389Z,15.30
2018-09-05T05:09:53.693Z,15.30
2018-09-05T05:12:22.032Z,15.10
2018-09-05T05:14:50.345Z,14.90
2018-09-05T05:17:18.684Z,15.00
2018-09-05T05:19:46.984Z,15.10
2018-09-05T05:22:15.325Z,14.90
2018-09-05T05:24:43.629Z,14.70
2018-09-05T05:27:11.951Z,14.60
2018-09-05T05:29:40.259Z,14.30
2018-09-05T05:32:08.584Z,14.10
2018-09-05T05:34:36.904Z,14.10
2018-09-05T05:37:05.262Z,14.20
2018-09-05T05:39:33.601Z,14.30
2018-09-05T05:42:01.920Z,14.60
2018-09-05T05:44:30.244Z,15.00
2018-09-05T05:46:58.579Z,15.20
2018-09-05T05:49:26.880Z,15.20
2018-09-05T05:51:55.204Z,15.10
2018-09-05T05:54:23.504Z,15.00
2018-09-05T05:56:51.944Z,14.70
2018-09-05T05:59:20.376Z,14.60
2018-09-05T06:01:48.707Z,14.80
2018-09-05T06:04:17.007Z,14.90
2018-09-05T06:06:45.406Z,14.90
2018-09-05T06:09:13.715Z,14.90
2018-09-05T06:11:42.044Z,14.80
2018-09-05T06:14:10.349Z,14.70
2018-09-05T06:16:40.243Z,14.90
2018-09-05T06:19:08.608Z,15.20
2018-09-05T06:21:36.924Z,15.30
2018-09-05T06:24:05.254Z,15.40
2018-09-05T06:26:33.661Z,15.40
2018-09-05T06:29:01.959Z,15.50
2018-09-05T06:31:30.281Z,15.70
2018-09-05T06:33:58.679Z,15.80
2018-09-05T06:36:27.029Z,15.90
2018-09-05T06:38:55.409Z,16.20
2018-09-05T06:41:23.709Z,16.30
2018-09-05T06:43:52.012Z,16.30
2018-09-05T06:46:20.347Z,16.50
2018-09-05T06:48:48.750Z,16.50
2018-09-05T06:51:17.122Z,16.50
2018-09-05T06:53:45.420Z,16.50
2018-09-05T06:56:13.724Z,16.50
2018-09-05T06:58:42.057Z,16.60
2018-09-05T07:01:10.428Z,16.60
2018-09-05T07:03:38.839Z,16.70
2018-09-05T07:06:07.153Z,16.50
2018-09-05T07:08:35.483Z,16.40
2018-09-05T07:11:03.884Z,16.60
2018-09-05T07:13:32.224Z,16.80
2018-09-05T07:16:00.564Z,16.60
2018-09-05T07:18:28.896Z,16.40
2018-09-05T07:21:05.685Z,16.50
2018-09-05T07:23:25.585Z,16.40
2018-09-05T07:25:53.897Z,16.50
2018-09-05T07:28:22.221Z,16.40
2018-09-05T07:30:50.597Z,16.30
2018-09-05T07:33:18.876Z,16.30
2018-09-05T07:35:47.249Z,16.40
2018-09-05T07:38:15.564Z,16.40
2018-09-05T07:40:43.881Z,16.50
2018-09-05T07:43:12.205Z,16.60
2018-09-05T07:45:40.816Z,16.70
2018-09-05T07:48:09.192Z,17.10
2018-09-05T07:50:37.555Z,17.20
2018-09-05T07:53:05.872Z,17.20
2018-09-05T07:55:34.177Z,17.40
2018-09-05T07:58:02.504Z,17.50
2018-09-05T08:00:30.810Z,17.50
2018-09-05T08:02:59.172Z,17.50
2018-09-05T08:05:27.469Z,17.60
2018-09-05T08:07:55.816Z,17.70
2018-09-05T08:10:24.120Z,17.70
2018-09-05T08:12:52.443Z,18.00
2018-09-05T08:15:20.739Z,18.10
2018-09-05T08:17:49.064Z,18.00
2018-09-05T08:20:17.376Z,18.10
2018-09-05T08:22:45.761Z,18.10
2018-09-05T08:25:14.068Z,18.00
2018-09-05T08:27:42.388Z,18.10
2018-09-05T08:30:10.786Z,18.20
2018-09-05T08:32:39.024Z,18.20
2018-09-05T08:35:07.845Z,18.20
2018-09-05T08:37:36.365Z,18.20
2018-09-05T08:40:04.439Z,18.30
2018-09-05T08:42:33.823Z,18.50
2018-09-05T08:45:02.874Z,18.50
2018-09-05T08:47:31.566Z,18.70
2018-09-05T08:50:00.836Z,18.90
2018-09-05T08:52:29.259Z,19.00
2018-09-05T08:54:57.572Z,18.80
2018-09-05T08:57:25.877Z,19.20
2018-09-05T08:59:54.201Z,19.50
2018-09-05T09:02:22.501Z,19.60
2018-09-05T09:04:50.932Z,19.80
2018-09-05T09:07:19.225Z,19.80
2018-09-05T09:09:47.552Z,19.70
2018-09-05T09:12:15.896Z,19.40
2018-09-05T09:14:44.212Z,19.40
2018-09-05T09:17:12.508Z,19.30
2018-09-05T09:19:40.828Z,19.00
2018-09-05T09:22:09.128Z,19.00
2018-09-05T09:24:37.456Z,19.30
2018-09-05T09:27:06.844Z,19.80
2018-09-05T09:29:36.491Z,20.00
2018-09-05T09:32:06.307Z,20.10
2018-09-05T09:34:35.749Z,20.00
2018-09-05T09:37:05.376Z,19.60
2018-09-05T09:39:34.535Z,19.40
2018-09-05T09:42:04.089Z,19.20
2018-09-05T09:44:33.547Z,19.00
2018-09-05T09:47:03.259Z,18.80
2018-09-05T09:49:32.744Z,18.90
2018-09-05T09:52:07.488Z,19.20
2018-09-05T09:54:37.243Z,19.50
2018-09-05T09:57:06.778Z,19.80
2018-09-05T09:59:36.056Z,20.00
2018-09-05T10:02:10.339Z,20.40
2018-09-05T10:04:44.706Z,20.60
2018-09-05T10:07:18.615Z,20.50
2018-09-05T10:09:55.409Z,20.20
2018-09-05T10:12:29.046Z,20.00
2018-09-05T10:15:06.602Z,20.20
2018-09-05T10:17:36.492Z,20.20
2018-09-05T10:20:05.103Z,19.90
2018-09-05T10:22:33.596Z,19.60
2018-09-05T10:25:01.939Z,19.70
2018-09-05T10:27:30.236Z,20.10
2018-09-05T10:29:58.877Z,20.00
2018-09-05T10:32:27.204Z,19.70
2018-09-05T10:34:56.320Z,19.20
2018-09-05T10:37:24.963Z,19.00
2018-09-05T10:39:53.285Z,19.00
2018-09-05T10:42:21.584Z,19.30
2018-09-05T10:44:49.980Z,19.70
2018-09-05T10:47:18.273Z,20.10
2018-09-05T10:49:46.597Z,20.20
2018-09-05T10:52:14.888Z,19.90
2018-09-05T10:54:43.200Z,20.30
2018-09-05T10:57:11.506Z,20.90
2018-09-05T10:59:39.821Z,20.90
2018-09-05T11:02:08.120Z,20.80
2018-09-05T11:04:36.437Z,20.80
2018-09-05T11:07:04.928Z,20.50
2018-09-05T11:09:33.235Z,20.30
2018-09-05T11:12:01.523Z,19.90
2018-09-05T11:14:29.847Z,19.80
2018-09-05T11:16:58.148Z,19.50
2018-09-05T11:19:26.495Z,19.60
2018-09-05T11:21:54.787Z,19.60
2018-09-05T11:24:23.252Z,19.80
2018-09-05T11:26:51.559Z,19.90
2018-09-05T11:29:19.867Z,20.60
2018-09-05T11:31:48.171Z,21.50
2018-09-05T11:34:16.505Z,21.90
2018-09-05T11:36:44.800Z,22.50
2018-09-05T11:39:14.152Z,22.80
2018-09-05T11:41:42.463Z,22.80
2018-09-05T11:44:10.796Z,22.90
2018-09-05T11:46:39.516Z,22.90
2018-09-05T11:49:08.843Z,22.80
2018-09-05T11:51:37.424Z,22.70
2018-09-05T11:54:06.337Z,22.60
2018-09-05T11:56:34.652Z,22.60
2018-09-05T11:59:02.984Z,22.60
2018-09-05T12:01:31.288Z,22.40
2018-09-05T12:03:59.810Z,22.60
2018-09-05T12:06:28.152Z,22.50
2018-09-05T12:11:32.152Z,22.80
2018-09-05T12:14:00.469Z,23.10
2018-09-05T12:16:28.781Z,22.90
2018-09-05T12:18:57.072Z,22.70
2018-09-05T12:21:25.389Z,22.70
2018-09-05T12:23:53.704Z,23.00
2018-09-05T12:26:22.021Z,23.00
2018-09-05T12:28:50.331Z,23.00
2018-09-05T12:31:18.647Z,22.90
2018-09-05T12:33:46.940Z,22.80
2018-09-05T12:36:15.243Z,22.80
2018-09-05T12:38:43.549Z,22.80
2018-09-05T12:41:11.872Z,22.70
2018-09-05T12:43:40.792Z,22.70
2018-09-05T12:46:09.149Z,22.80
2018-09-05T12:48:37.452Z,22.70
2018-09-05T12:51:05.793Z,22.80
2018-09-05T12:53:34.096Z,22.90
2018-09-05T12:56:02.428Z,23.00
2018-09-05T12:58:30.796Z,22.80
2018-09-05T13:00:59.116Z,22.70
2018-09-05T13:03:27.425Z,22.60
2018-09-05T13:05:55.740Z,22.70
2018-09-05T13:08:24.160Z,22.70
2018-09-05T13:10:52.571Z,22.90
2018-09-05T13:13:20.905Z,23.20
2018-09-05T13:15:49.208Z,23.40
2018-09-05T13:18:17.505Z,23.40
2018-09-05T13:20:45.812Z,23.30
2018-09-05T13:23:14.124Z,23.20
2018-09-05T13:25:42.439Z,23.20
2018-09-05T13:28:12.239Z,23.20
2018-09-05T13:30:40.629Z,23.10
2018-09-05T13:33:09.149Z,23.10
2018-09-05T13:35:37.544Z,23.20
2018-09-05T13:38:06.006Z,23.20
2018-09-05T13:40:34.404Z,23.30
2018-09-05T13:43:02.744Z,23.30
2018-09-05T13:45:31.052Z,23.40
2018-09-05T13:47:59.400Z,23.40
2018-09-05T13:50:27.792Z,23.30
2018-09-05T13:52:56.085Z,23.20
2018-09-05T13:55:24.413Z,23.20
2018-09-05T13:57:52.732Z,23.20
2018-09-05T14:00:21.053Z,23.20
2018-09-05T14:02:49.374Z,22.90
2018-09-05T14:05:17.960Z,23.10
2018-09-05T14:07:46.276Z,23.10
2018-09-05T14:10:15.791Z,23.00
2018-09-05T14:12:44.195Z,23.00
2018-09-05T14:15:12.664Z,23.20
2018-09-05T14:17:40.977Z,23.30
2018-09-05T14:20:09.297Z,23.30
2018-09-05T14:22:37.811Z,22.90
2018-09-05T14:25:06.132Z,22.90
2018-09-05T14:27:34.462Z,22.90
2018-09-05T14:30:02.817Z,22.80
2018-09-05T14:32:31.128Z,22.80
2018-09-05T14:34:59.415Z,22.80
2018-09-05T14:37:27.727Z,22.90
2018-09-05T14:39:56.042Z,22.80
2018-09-05T14:42:24.400Z,22.80
2018-09-05T14:44:52.700Z,23.00
2018-09-05T14:47:21.007Z,23.20
2018-09-05T14:49:49.407Z,23.20
2018-09-05T14:52:17.725Z,23.20
2018-09-05T14:54:46.020Z,23.10
2018-09-05T14:57:14.340Z,23.00
2018-09-05T14:59:42.690Z,23.10
2018-09-05T15:02:10.992Z,23.10
2018-09-05T15:04:39.548Z,23.10
2018-09-05T15:07:07.912Z,23.10
2018-09-05T15:09:36.213Z,23.20
2018-09-05T15:12:04.533Z,23.20
2018-09-05T15:14:32.836Z,23.20
2018-09-05T15:17:01.202Z,23.30
2018-09-05T15:19:29.523Z,23.30
2018-09-05T15:21:57.932Z,23.30
2018-09-05T15:24:26.229Z,23.50
2018-09-05T15:26:54.548Z,23.60
2018-09-05T15:29:22.844Z,23.60
2018-09-05T15:31:51.161Z,23.50
2018-09-05T15:34:19.461Z,23.40
2018-09-05T15:36:47.776Z,23.30
2018-09-05T15:39:16.082Z,23.20
2018-09-05T15:41:44.548Z,23.30
2018-09-05T15:44:12.836Z,23.40
2018-09-05T15:46:41.397Z,23.50
2018-09-05T15:49:09.732Z,23.40
2018-09-05T15:51:38.161Z,23.40
2018-09-05T15:54:06.504Z,23.20
2018-09-05T15:56:34.912Z,23.20
2018-09-05T15:59:03.228Z,22.90
2018-09-05T16:01:31.548Z,23.10
2018-09-05T16:03:59.853Z,23.40
2018-09-05T16:06:28.196Z,23.70
2018-09-05T16:08:56.493Z,24.00
2018-09-05T16:11:24.804Z,24.20
2018-09-05T16:13:53.099Z,24.40
2018-09-05T16:16:21.436Z,24.40
2018-09-05T16:18:49.750Z,24.20
2018-09-05T16:21:18.085Z,24.40
2018-09-05T16:23:46.376Z,24.20
2018-09-05T16:26:14.699Z,24.00
2018-09-05T16:28:43.016Z,23.70
2018-09-05T16:31:11.329Z,23.40
2018-09-05T16:33:39.812Z,23.00
2018-09-05T16:36:08.127Z,23.00
2018-09-05T16:38:36.468Z,22.70
2018-09-05T16:41:04.807Z,22.70
2018-09-05T16:43:33.113Z,22.70
2018-09-05T16:46:01.492Z,22.70
2018-09-05T16:48:29.848Z,22.40
2018-09-05T16:50:58.129Z,22.20
2018-09-05T16:53:26.561Z,22.10
2018-09-05T16:55:54.856Z,21.90
2018-09-05T16:58:23.232Z,21.80
2018-09-05T17:00:51.573Z,21.70
2018-09-05T17:03:19.865Z,21.70
2018-09-05T17:05:48.172Z,21.50
2018-09-05T17:08:16.561Z,21.20
2018-09-05T17:10:47.250Z,20.80
2018-09-05T17:13:15.578Z,20.40
2018-09-05T17:15:43.960Z,20.10
2018-09-05T17:18:12.297Z,19.80
2018-09-05T17:20:41.517Z,19.60
2018-09-05T17:23:09.904Z,19.40
2018-09-05T17:25:38.292Z,19.20
2018-09-05T17:28:07.004Z,19.00
2018-09-05T17:30:35.320Z,18.90
2018-09-05T17:33:03.644Z,18.70
2018-09-05T17:35:32.124Z,18.60
2018-09-05T17:38:00.440Z,18.50
2018-09-05T17:40:29.552Z,18.40
2018-09-05T17:42:57.909Z,18.30
2018-09-05T17:45:26.216Z,18.20
2018-09-05T17:47:55.335Z,18.10
2018-09-05T17:50:23.690Z,18.10
2018-09-05T17:52:52.476Z,18.00
2018-09-05T17:55:20.797Z,17.90
2018-09-05T17:57:49.123Z,17.90
2018-09-05T18:00:17.420Z,17.80
2018-09-05T18:02:45.837Z,17.80
2018-09-05T18:05:14.752Z,17.80
2018-09-05T18:07:43.097Z,17.80
2018-09-05T18:10:11.391Z,17.80
2018-09-05T18:12:40.009Z,17.80
2018-09-05T18:15:08.304Z,17.70
2018-09-05T18:17:36.940Z,17.70
2018-09-05T18:20:05.383Z,17.70
2018-09-05T18:22:33.700Z,17.70
2018-09-05T18:25:03.093Z,17.70
2018-09-05T18:27:31.516Z,17.60
2018-09-05T18:29:59.956Z,17.50
2018-09-05T18:32:28.268Z,17.50
2018-09-05T18:34:56.596Z,17.50
2018-09-05T18:37:24.923Z,17.50
2018-09-05T18:39:53.244Z,17.50
2018-09-05T18:42:22.331Z,17.40
2018-09-05T18:44:51.301Z,17.40
2018-09-05T18:47:19.636Z,17.40
2018-09-05T18:49:48.688Z,17.40
2018-09-05T18:52:17.874Z,17.40
2018-09-05T18:54:46.769Z,17.40
2018-09-05T18:57:15.064Z,17.40
2018-09-05T18:59:43.389Z,17.40
2018-09-05T19:02:11.693Z,17.40
2018-09-05T19:04:40.059Z,17.40
2018-09-05T19:07:08.387Z,17.40
2018-09-05T19:09:36.702Z,17.40
2018-09-05T19:12:05.041Z,17.40
2018-09-05T19:14:33.364Z,17.30
2018-09-05T19:17:01.673Z,17.30
2018-09-05T19:19:30.009Z,17.30
2018-09-05T19:21:58.369Z,17.30
2018-09-05T19:24:26.709Z,17.30
2018-09-05T19:26:55.003Z,17.30
2018-09-05T19:29:23.345Z,17.30
2018-09-05T19:31:51.700Z,17.30
2018-09-05T19:34:20.040Z,17.30
2018-09-05T19:36:48.351Z,17.30
2018-09-05T19:39:16.692Z,17.30
2018-09-05T19:41:44.997Z,17.20
2018-09-05T19:44:13.342Z,17.20
2018-09-05T19:46:41.656Z,17.20
2018-09-05T19:49:09.989Z,17.20
2018-09-05T19:51:38.388Z,17.20
2018-09-05T19:54:06.732Z,17.10
2018-09-05T19:56:35.128Z,17.10
2018-09-05T19:59:03.441Z,17.10
2018-09-05T20:01:31.744Z,17.10
2018-09-05T20:04:00.104Z,17.10
2018-09-05T20:06:28.400Z,17.10
2018-09-05T20:08:56.752Z,17.10
2018-09-05T20:11:25.060Z,17.10
2018-09-05T20:13:53.376Z,17.10
2018-09-05T20:16:21.675Z,17.10
2018-09-05T20:18:49.992Z,17.10
2018-09-05T20:21:18.284Z,17.00
2018-09-05T20:23:46.656Z,17.00
2018-09-05T20:26:15.328Z,16.90
2018-09-05T20:28:43.651Z,16.90
2018-09-05T20:31:11.952Z,16.90
2018-09-05T20:33:40.264Z,16.90
2018-09-05T20:36:08.556Z,16.90
2018-09-05T20:38:36.863Z,17.00
2018-09-05T20:41:05.250Z,17.00
2018-09-05T20:43:33.619Z,17.00
2018-09-05T20:46:01.904Z,16.90
2018-09-05T20:48:30.229Z,16.90
2018-09-05T20:50:58.571Z,16.90
2018-09-05T20:53:27.306Z,16.90
2018-09-05T20:55:55.623Z,16.90
2018-09-05T20:58:23.941Z,16.90
2018-09-05T21:00:52.245Z,16.90
2018-09-05T21:03:20.572Z,16.90
2018-09-05T21:05:48.868Z,16.80
2018-09-05T21:08:17.199Z,16.80
2018-09-05T21:10:45.540Z,16.80
2018-09-05T21:13:13.872Z,16.80
2018-09-05T21:15:42.220Z,16.90
2018-09-05T21:18:10.569Z,16.80
2018-09-05T21:20:38.907Z,16.60
2018-09-05T21:23:07.220Z,16.40
2018-09-05T21:25:35.543Z,16.30
2018-09-05T21:28:03.844Z,16.40
2018-09-05T21:30:32.159Z,16.40
2018-09-05T21:33:00.460Z,16.50
2018-09-05T21:35:28.792Z,16.60
2018-09-05T21:37:57.093Z,16.60
2018-09-05T21:40:25.474Z,16.70
2018-09-05T21:42:53.776Z,16.70
2018-09-05T21:45:22.205Z,16.70
2018-09-05T21:47:50.536Z,16.80
2018-09-05T21:50:18.869Z,16.60
2018-09-05T21:52:47.217Z,16.60
2018-09-05T21:55:15.580Z,16.60
2018-09-05T21:57:43.907Z,16.60
2018-09-05T22:00:12.632Z,16.60
2018-09-05T22:02:40.928Z,16.60
2018-09-05T22:05:09.285Z,16.50
2018-09-05T22:07:37.614Z,16.50
2018-09-05T22:10:05.952Z,16.50
2018-09-05T22:12:34.276Z,16.50
2018-09-05T22:15:02.608Z,16.40
2018-09-05T22:17:30.945Z,16.40
2018-09-05T22:19:59.267Z,16.50
2018-09-05T22:22:27.566Z,16.60
2018-09-05T22:24:55.913Z,16.40
2018-09-05T22:27:24.212Z,16.40
2018-09-05T22:29:52.559Z,16.20
2018-09-05T22:32:20.927Z,16.00
2018-09-05T22:34:49.204Z,16.00
2018-09-05T22:37:17.520Z,16.10
2018-09-05T22:39:45.900Z,16.10
2018-09-05T22:42:14.224Z,16.20
2018-09-05T22:44:55.264Z,16.20
2018-09-05T22:48:38.681Z,15.90
2018-09-05T22:52:26.725Z,15.70
2018-09-05T22:56:16.061Z,15.60
2018-09-05T22:58:55.597Z,15.90
2018-09-05T23:03:43.845Z,16.00
2018-09-05T23:06:26.418Z,16.10
2018-09-05T23:08:54.747Z,16.30
2018-09-05T23:12:36.992Z,16.20
2018-09-05T23:15:16.771Z,16.30
2018-09-05T23:18:11.014Z,16.40
2018-09-05T23:20:52.737Z,16.40
2018-09-05T23:23:32.535Z,16.30
2018-09-05T23:26:00.888Z,16.10
2018-09-05T23:28:29.205Z,15.90
2018-09-05T23:30:57.553Z,15.60
2018-09-05T23:33:25.910Z,15.50
2018-09-05T23:35:54.237Z,15.50
2018-09-05T23:38:22.541Z,15.60
2018-09-05T23:40:50.865Z,15.50
2018-09-05T23:43:19.178Z,15.50
2018-09-05T23:45:47.504Z,15.70
2018-09-05T23:48:15.833Z,15.80
2018-09-05T23:50:44.197Z,15.90
2018-09-05T23:53:12.549Z,15.80
2018-09-05T23:55:40.874Z,15.80
2018-09-05T23:58:09.195Z,15.80
